Time;durP1;ratioP1;P1;durP2;ratioP2;P2;SDS_P1;SDS_P2;PMS_P1;PMS_P2;Temp;Humidity;BMP_temperature;BMP_pressure;BME280_temperature;BME280_humidity;BME280_pressure;Samples;Min_cycle;Max_cycle;Signal;HPM_P1;HPM_P2
2022/01/06 00:00:53;;;;;;;0.70;0.70;;;4.00;74.30;3.10;97985.00;;;;5097267;28;20235;-79
2022/01/06 00:03:20;;;;;;;0.70;0.70;;;4.00;74.50;3.10;97984.00;;;;5097052;28;20201;-78
2022/01/06 00:05:46;;;;;;;0.63;0.63;;;3.90;75.20;3.10;97986.00;;;;5096802;28;20657;-77
2022/01/06 00:08:17;;;;;;;1.57;1.47;;;3.90;74.80;3.10;97989.00;;;;5097038;28;20202;-77
2022/01/06 00:10:46;;;;;;;0.70;0.70;;;3.90;75.00;3.10;97984.00;;;;5096840;28;20281;-75
2022/01/06 00:13:16;;;;;;;1.03;1.03;;;3.90;75.00;3.00;97987.00;;;;5096607;28;20225;-76
2022/01/06 00:15:58;;;;;;;1.10;1.10;;;3.90;74.80;2.70;97970.00;;;;5096846;28;20208;-76
2022/01/06 00:18:37;;;;;;;1.33;1.33;;;3.90;75.40;3.10;97987.00;;;;5096697;28;20252;-75
2022/01/06 00:23:50;;;;;;;0.90;0.90;;;3.90;75.00;3.00;97994.00;;;;5046486;28;20282;-77
2022/01/06 00:26:17;;;;;;;1.23;1.13;;;3.90;74.80;3.10;97990.00;;;;5097052;28;20703;-81
2022/01/06 00:28:43;;;;;;;0.60;0.60;;;4.00;74.90;3.20;97988.00;;;;5095882;28;20284;-81
2022/01/06 00:31:10;;;;;;;0.70;0.70;;;4.00;74.80;3.10;97986.00;;;;5096481;28;20647;-80
2022/01/06 00:33:36;;;;;;;0.60;0.60;;;4.00;74.90;3.10;97982.00;;;;5096760;28;20365;-79
2022/01/06 00:36:04;;;;;;;1.20;1.20;;;4.00;74.90;3.10;97983.00;;;;5096482;28;20299;-78
2022/01/06 00:38:30;;;;;;;0.60;0.60;;;3.90;75.80;3.00;97975.00;;;;5096471;28;20319;-79
2022/01/06 00:40:58;;;;;;;0.90;0.90;;;3.90;76.10;3.00;97976.00;;;;5096582;28;20629;-79
2022/01/06 00:43:25;;;;;;;1.50;1.40;;;3.90;76.70;3.10;97959.00;;;;5096689;28;20257;-79
2022/01/06 00:45:52;;;;;;;2.13;1.93;;;3.90;75.90;3.00;97967.00;;;;5096286;28;20197;-79
2022/01/06 00:48:18;;;;;;;0.90;0.90;;;3.90;76.10;3.20;97980.00;;;;5096412;28;20283;-78
2022/01/06 00:50:45;;;;;;;1.43;1.30;;;4.00;75.70;3.10;97976.00;;;;5096478;28;20263;-79
2022/01/06 00:53:12;;;;;;;0.60;0.60;;;4.00;75.40;3.20;97975.00;;;;5096247;28;20566;-79
2022/01/06 00:55:41;;;;;;;0.67;0.67;;;4.00;75.70;3.20;97982.00;;;;5096210;28;20217;-79
2022/01/06 00:58:08;;;;;;;0.83;0.70;;;4.10;74.90;3.10;97986.00;;;;5096053;28;20251;-79
2022/01/06 01:00:38;;;;;;;0.63;0.63;;;4.00;75.30;3.10;97986.00;;;;5096140;28;20236;-79
2022/01/06 01:03:08;;;;;;;1.37;0.73;;;4.00;75.30;3.30;97961.00;;;;5096088;28;20220;-79
2022/01/06 01:05:35;;;;;;;0.70;0.70;;;4.00;75.50;3.10;97991.00;;;;5095978;28;20322;-79
2022/01/06 01:08:01;;;;;;;1.43;1.10;;;3.90;75.70;3.20;98002.00;;;;5096089;28;20193;-78
2022/01/06 01:10:28;;;;;;;0.60;0.60;;;4.00;75.40;3.40;98012.00;;;;5096064;28;20236;-80
2022/01/06 01:12:55;;;;;;;0.70;0.70;;;4.20;75.40;3.20;98014.00;;;;5096515;28;20212;-80
2022/01/06 01:15:23;;;;;;;3.10;1.33;;;4.10;75.50;3.40;98006.00;;;;5096146;28;20329;-79
2022/01/06 01:17:51;;;;;;;0.90;0.90;;;4.10;76.10;3.20;98023.00;;;;5095908;28;20232;-78
2022/01/06 01:20:19;;;;;;;4.67;2.17;;;4.00;76.70;3.20;97992.00;;;;5095975;28;20198;-78
2022/01/06 01:22:47;;;;;;;0.90;0.90;;;4.00;78.50;3.20;97996.00;;;;5095832;28;20221;-79
2022/01/06 01:25:14;;;;;;;0.60;0.60;;;4.10;78.30;3.30;98014.00;;;;5095901;28;20599;-79
2022/01/06 01:27:43;;;;;;;0.97;0.97;;;4.20;78.30;3.30;98015.00;;;;5096043;28;20217;-79
2022/01/06 01:30:14;;;;;;;1.70;0.80;;;4.10;78.40;3.30;98031.00;;;;5095925;28;20306;-80
2022/01/06 01:32:49;;;;;;;0.90;0.90;;;4.10;78.80;3.20;98018.00;;;;5095976;28;20204;-80
2022/01/06 01:35:16;;;;;;;1.03;1.03;;;4.10;79.20;3.10;98038.00;;;;5095985;28;20511;-80
2022/01/06 01:37:43;;;;;;;2.90;2.30;;;4.10;79.10;3.10;98031.00;;;;5112533;28;20641;-80
2022/01/06 01:40:12;;;;;;;1.20;1.10;;;4.00;79.60;3.20;98006.00;;;;5096673;28;20231;-80
2022/01/06 01:42:41;;;;;;;0.60;0.60;;;4.00;79.90;3.30;98031.00;;;;5099453;28;20202;-80
2022/01/06 01:45:09;;;;;;;0.93;0.93;;;4.10;80.00;3.30;98031.00;;;;5099221;28;20225;-80
2022/01/06 01:47:43;;;;;;;1.03;1.03;;;4.10;79.70;3.20;98034.00;;;;5099158;28;20660;-77
2022/01/06 01:50:16;;;;;;;0.70;0.70;;;4.10;79.60;3.20;98036.00;;;;5099056;28;20213;-79
2022/01/06 01:52:47;;;;;;;0.60;0.60;;;4.10;80.00;3.10;98040.00;;;;5099170;28;20198;-80
2022/01/06 01:55:18;;;;;;;4.60;0.80;;;4.00;80.20;3.20;98049.00;;;;5099098;28;20281;-80
2022/01/06 01:57:45;;;;;;;0.73;0.73;;;4.00;81.50;3.10;98042.00;;;;5098899;28;20225;-80
2022/01/06 02:00:15;;;;;;;0.80;0.80;;;4.00;80.70;3.00;98041.00;;;;5099025;28;20629;-79
2022/01/06 02:02:43;;;;;;;0.70;0.70;;;4.00;81.10;3.20;98026.00;;;;5099014;28;20194;-80
2022/01/06 02:05:11;;;;;;;0.70;0.70;;;4.00;81.70;3.10;98048.00;;;;5098720;28;20635;-80
2022/01/06 02:07:40;;;;;;;0.60;0.60;;;4.00;81.00;3.20;98049.00;;;;5098821;28;20625;-79
2022/01/06 02:10:12;;;;;;;1.10;1.10;;;4.00;81.00;3.30;98028.00;;;;5098625;28;20632;-77
2022/01/06 02:12:41;;;;;;;0.60;0.60;;;4.00;81.50;3.10;98046.00;;;;5098756;28;20656;-80
2022/01/06 02:15:12;;;;;;;0.80;0.80;;;4.00;81.50;3.30;98048.00;;;;5101605;28;20192;-79
2022/01/06 02:17:38;;;;;;;2.53;1.33;;;4.00;80.80;3.30;98057.00;;;;5111044;28;20279;-80
2022/01/06 02:20:10;;;;;;;1.00;1.00;;;4.10;80.30;3.30;98054.00;;;;5111528;28;20263;-79
2022/01/06 02:22:37;;;;;;;0.73;0.73;;;4.00;80.80;3.20;98053.00;;;;5116615;28;20198;-79
2022/01/06 02:25:13;;;;;;;0.60;0.60;;;4.10;81.10;3.30;98049.00;;;;5116555;28;20301;-80
2022/01/06 02:27:40;;;;;;;0.60;0.60;;;4.10;80.30;3.30;98053.00;;;;5098650;28;20198;-79
2022/01/06 02:30:09;;;;;;;1.03;1.03;;;4.10;79.90;3.10;98034.00;;;;5107306;28;20230;-79
2022/01/06 02:32:36;;;;;;;1.00;1.00;;;4.00;80.30;3.20;98062.00;;;;5112189;28;20238;-80
2022/01/06 02:35:08;;;;;;;0.60;0.60;;;4.00;80.50;3.20;98062.00;;;;5103538;28;20201;-80
2022/01/06 02:37:35;;;;;;;0.63;0.63;;;4.00;80.10;3.30;98068.00;;;;5099079;28;20231;-80
2022/01/06 02:40:08;;;;;;;0.60;0.60;;;4.10;79.70;3.20;98057.00;;;;5098378;28;20225;-80
2022/01/06 02:42:38;;;;;;;0.70;0.70;;;4.10;79.60;3.30;98051.00;;;;5098395;28;20628;-80
2022/01/06 02:45:07;;;;;;;0.93;0.93;;;4.00;80.30;3.20;98052.00;;;;5098197;28;20240;-79
2022/01/06 02:47:33;;;;;;;0.97;0.97;;;4.00;79.50;3.00;98057.00;;;;5098174;28;20281;-80
2022/01/06 02:50:00;;;;;;;0.67;0.67;;;3.90;80.10;3.10;98057.00;;;;5098071;28;20217;-77
2022/01/06 02:52:27;;;;;;;1.13;1.13;;;4.00;79.80;3.10;98079.00;;;;5097349;28;20238;-80
2022/01/06 02:54:54;;;;;;;0.77;0.77;;;4.00;80.30;3.10;98077.00;;;;5097986;28;20198;-80
2022/01/06 02:57:20;;;;;;;1.60;1.50;;;3.90;80.30;3.10;98086.00;;;;5097905;28;20319;-80
2022/01/06 02:59:47;;;;;;;1.10;1.10;;;3.90;80.50;3.00;98089.00;;;;5098189;28;20614;-80
2022/01/06 03:02:14;;;;;;;0.60;0.60;;;3.90;80.70;3.10;98095.00;;;;5098045;28;20201;-79
2022/01/06 03:04:40;;;;;;;1.03;0.70;;;3.90;81.10;3.30;98097.00;;;;5097734;28;20225;-79
2022/01/06 03:07:08;;;;;;;0.80;0.80;;;4.00;81.50;3.40;98105.00;;;;5097952;28;20218;-79
2022/01/06 03:09:38;;;;;;;0.60;0.60;;;4.10;81.90;3.50;98101.00;;;;5097927;28;20504;-79
2022/01/06 03:12:11;;;;;;;1.07;1.00;;;4.20;80.50;3.40;98102.00;;;;5097791;28;20265;-80
2022/01/06 03:14:38;;;;;;;1.00;1.00;;;4.30;80.40;3.40;98106.00;;;;5097952;28;20296;-79
2022/01/06 03:17:05;;;;;;;0.50;0.50;;;4.20;81.80;3.40;98108.00;;;;5097755;28;20256;-79
2022/01/06 03:19:31;;;;;;;1.83;1.73;;;4.20;81.80;3.20;98113.00;;;;5097664;28;20636;-80
2022/01/06 03:21:58;;;;;;;0.70;0.70;;;4.10;82.60;3.10;98114.00;;;;5097770;28;20295;-80
2022/01/06 03:24:24;;;;;;;0.70;0.70;;;4.00;83.50;3.10;98109.00;;;;5097543;28;20319;-79
2022/01/06 03:26:51;;;;;;;0.70;0.70;;;4.00;83.70;3.10;98118.00;;;;5097684;28;20613;-79
2022/01/06 03:29:18;;;;;;;0.70;0.70;;;3.90;84.80;3.20;98111.00;;;;5097554;28;20355;-80
2022/01/06 03:31:45;;;;;;;1.23;1.23;;;4.00;85.10;3.20;98121.00;;;;5097708;28;20220;-79
2022/01/06 03:34:12;;;;;;;1.03;1.03;;;4.00;85.10;3.10;98112.00;;;;5097516;28;20213;-79
2022/01/06 03:36:39;;;;;;;1.27;1.27;;;4.00;85.10;2.90;98107.00;;;;5114398;28;20225;-79
2022/01/06 03:39:06;;;;;;;0.60;0.60;;;3.90;85.60;3.10;98104.00;;;;5097453;28;20232;-78
2022/01/06 03:41:33;;;;;;;0.63;0.63;;;3.90;85.50;3.10;98113.00;;;;5114374;28;20206;-77
2022/01/06 03:44:03;;;;;;;0.70;0.70;;;3.90;85.80;3.10;98116.00;;;;5097111;28;20230;-79
2022/01/06 03:46:30;;;;;;;0.63;0.63;;;3.90;85.60;3.00;98111.00;;;;5097134;28;20193;-77
2022/01/06 03:48:56;;;;;;;3.97;1.67;;;3.90;86.00;2.80;98111.00;;;;5097453;28;20277;-79
2022/01/06 03:51:25;;;;;;;0.60;0.60;;;3.70;86.50;3.00;98114.00;;;;5097127;28;20243;-79
2022/01/06 03:53:52;;;;;;;1.33;1.33;;;3.80;86.40;3.10;98112.00;;;;5097183;28;20212;-79
2022/01/06 03:56:19;;;;;;;1.00;1.00;;;3.90;85.40;3.10;98121.00;;;;5097063;28;20511;-79
2022/01/06 03:58:45;;;;;;;0.70;0.70;;;3.90;85.10;3.00;98119.00;;;;5097276;28;20195;-79
2022/01/06 04:01:13;;;;;;;0.70;0.70;;;3.80;85.50;3.00;98121.00;;;;5097106;28;20213;-80
2022/01/06 04:03:39;;;;;;;0.50;0.50;;;3.90;85.40;3.00;98130.00;;;;5095675;28;20225;-80
2022/01/06 04:06:06;;;;;;;1.13;1.03;;;3.90;85.30;3.00;98138.00;;;;5097207;28;20201;-80
2022/01/06 04:08:35;;;;;;;0.60;0.60;;;3.80;85.20;2.90;98136.00;;;;5096944;28;20235;-79
2022/01/06 04:11:02;;;;;;;0.90;0.90;;;3.80;86.30;3.00;98145.00;;;;5097052;28;20652;-79
2022/01/06 04:13:29;;;;;;;0.70;0.70;;;3.80;85.90;3.00;98130.00;;;;5097110;28;20198;-79
2022/01/06 04:15:57;;;;;;;0.70;0.70;;;3.80;85.70;3.00;98144.00;;;;5096893;28;20636;-79
2022/01/06 04:18:26;;;;;;;1.10;1.00;;;3.80;86.00;3.10;98145.00;;;;5096940;28;20563;-80
2022/01/06 04:20:53;;;;;;;1.10;1.10;;;3.90;85.50;3.10;98140.00;;;;5096918;28;20611;-79
2022/01/06 04:23:19;;;;;;;0.90;0.90;;;3.90;85.70;3.30;98146.00;;;;5096667;28;20231;-76
2022/01/06 04:25:46;;;;;;;1.47;1.37;;;4.00;86.10;3.10;98137.00;;;;5096749;28;20213;-79
2022/01/06 04:28:12;;;;;;;0.50;0.50;;;4.00;85.10;3.10;98151.00;;;;5096701;28;20229;-79
2022/01/06 04:30:39;;;;;;;0.60;0.60;;;4.00;85.40;3.10;98144.00;;;;5096793;28;20321;-79
2022/01/06 04:33:05;;;;;;;0.70;0.70;;;4.00;85.10;3.20;98144.00;;;;5096881;28;20207;-79
2022/01/06 04:35:33;;;;;;;5.23;1.57;;;4.00;84.80;3.20;98146.00;;;;5096819;28;20217;-77
2022/01/06 04:37:59;;;;;;;18.67;1.17;;;4.00;85.30;3.30;98145.00;;;;5096660;28;20299;-79
2022/01/06 04:40:26;;;;;;;0.70;0.70;;;4.00;85.00;3.20;98153.00;;;;5096561;28;20226;-80
2022/01/06 04:42:55;;;;;;;1.10;1.10;;;4.00;85.10;3.10;98150.00;;;;5096574;28;20232;-79
2022/01/06 04:45:24;;;;;;;0.70;0.70;;;3.90;85.30;3.10;98145.00;;;;5096472;28;20660;-79
2022/01/06 04:47:51;;;;;;;0.70;0.70;;;3.90;85.50;3.00;98144.00;;;;5113517;28;20198;-79
2022/01/06 04:50:18;;;;;;;1.17;1.17;;;3.80;85.50;3.00;98148.00;;;;5096345;28;20228;-77
2022/01/06 04:52:45;;;;;;;1.00;0.73;;;3.80;86.20;3.00;98147.00;;;;5096561;28;20202;-79
2022/01/06 04:55:14;;;;;;;0.70;0.70;;;3.80;86.10;3.00;98149.00;;;;5096442;28;20205;-79
2022/01/06 04:57:40;;;;;;;1.17;1.17;;;3.90;86.50;3.00;98155.00;;;;5096271;28;20311;-79
2022/01/06 05:00:10;;;;;;;1.03;1.03;;;3.80;86.20;3.00;98158.00;;;;5096320;28;20210;-76
2022/01/06 05:02:39;;;;;;;4.03;1.90;;;3.80;86.40;3.20;98173.00;;;;5096250;28;20197;-79
2022/01/06 05:05:06;;;;;;;7.73;1.17;;;4.00;85.80;3.10;98165.00;;;;5096319;28;20231;-79
2022/01/06 05:07:33;;;;;;;0.93;0.93;;;4.00;85.10;3.00;98172.00;;;;5096286;28;20287;-80
2022/01/06 05:10:00;;;;;;;0.67;0.67;;;3.90;85.20;3.10;98175.00;;;;5096269;28;20235;-79
2022/01/06 05:12:26;;;;;;;1.07;0.97;;;3.90;86.50;3.00;98177.00;;;;5096404;28;20198;-79
2022/01/06 05:14:53;;;;;;;0.60;0.60;;;3.80;85.50;3.00;98181.00;;;;5096928;28;20636;-79
2022/01/06 05:17:22;;;;;;;0.70;0.70;;;3.80;85.70;3.20;98182.00;;;;5099847;28;20226;-79
2022/01/06 05:19:48;;;;;;;0.90;0.90;;;3.80;86.00;3.20;98187.00;;;;5099796;28;20651;-79
2022/01/06 05:22:15;;;;;;;0.93;0.93;;;3.90;84.90;3.10;98191.00;;;;5099710;28;20215;-79
2022/01/06 05:24:41;;;;;;;5.30;1.90;;;3.80;85.50;3.00;98194.00;;;;5099537;28;20232;-79
2022/01/06 05:27:10;;;;;;;0.87;0.87;;;3.70;85.30;3.00;98194.00;;;;5099652;28;20223;-78
2022/01/06 05:29:37;;;;;;;0.60;0.60;;;3.70;85.40;3.00;98190.00;;;;5099493;28;20325;-80
2022/01/06 05:32:04;;;;;;;2.10;1.20;;;3.80;85.60;3.10;98196.00;;;;5099771;28;20292;-79
2022/01/06 05:34:31;;;;;;;0.60;0.60;;;3.90;84.90;3.20;98199.00;;;;5099583;28;20354;-79
2022/01/06 05:36:58;;;;;;;1.43;1.33;;;3.90;86.30;3.00;98204.00;;;;5099366;28;20229;-79
2022/01/06 05:39:24;;;;;;;0.97;0.97;;;3.80;85.10;3.00;98177.00;;;;5099373;28;20200;-79
2022/01/06 05:41:51;;;;;;;1.63;1.53;;;3.80;85.10;3.00;98201.00;;;;5099381;28;20219;-79
2022/01/06 05:44:18;;;;;;;0.67;0.67;;;3.80;85.50;3.10;98218.00;;;;5099210;28;20232;-78
2022/01/06 05:46:45;;;;;;;0.70;0.70;;;3.90;85.20;3.20;98218.00;;;;5099258;28;20192;-77
2022/01/06 05:49:12;;;;;;;3.93;1.60;;;4.00;85.20;3.10;98215.00;;;;5099301;28;20567;-78
2022/01/06 05:51:38;;;;;;;0.70;0.70;;;3.90;84.60;3.20;98222.00;;;;5099358;28;20211;-78
2022/01/06 05:54:05;;;;;;;1.00;0.97;;;4.00;85.10;3.20;98215.00;;;;5099285;28;20216;-80
2022/01/06 05:56:31;;;;;;;0.97;0.97;;;4.00;84.40;3.10;98225.00;;;;5099020;28;20239;-79
2022/01/06 05:58:58;;;;;;;0.60;0.60;;;3.90;84.60;3.10;98227.00;;;;5099127;28;20270;-79
2022/01/06 06:01:25;;;;;;;0.60;0.60;;;3.90;85.10;3.10;98225.00;;;;5099421;28;20301;-79
2022/01/06 06:03:54;;;;;;;0.50;0.50;;;3.90;85.20;3.20;98229.00;;;;5099044;28;20311;-79
2022/01/06 06:06:23;;;;;;;0.60;0.60;;;4.00;84.30;3.00;98227.00;;;;5103430;28;20616;-79
2022/01/06 06:08:51;;;;;;;1.03;1.03;;;3.90;84.40;3.10;98225.00;;;;5111600;28;20209;-79
2022/01/06 06:11:20;;;;;;;1.80;1.23;;;3.90;85.10;3.10;98229.00;;;;5110705;28;20296;-80
2022/01/06 06:13:47;;;;;;;0.60;0.60;;;3.90;85.10;3.20;98232.00;;;;5100750;28;20210;-80
2022/01/06 06:16:13;;;;;;;1.30;0.90;;;4.00;85.00;3.30;98247.00;;;;5099850;28;20316;-79
2022/01/06 06:18:40;;;;;;;1.07;1.00;;;4.00;84.50;3.20;98256.00;;;;5098868;28;20281;-79
2022/01/06 06:21:09;;;;;;;0.93;0.93;;;4.10;84.40;3.20;98248.00;;;;5106942;28;20198;-80
2022/01/06 06:23:38;;;;;;;0.83;0.83;;;4.00;84.40;3.00;98249.00;;;;5108332;28;20225;-80
2022/01/06 06:26:04;;;;;;;1.60;0.73;;;3.90;85.30;3.30;98243.00;;;;5100880;28;20309;-78
2022/01/06 06:28:33;;;;;;;1.33;1.10;;;4.00;85.20;3.10;98257.00;;;;5099079;28;20202;-80
2022/01/06 06:31:00;;;;;;;0.70;0.70;;;4.00;84.60;3.20;98261.00;;;;5098621;28;20632;-80
2022/01/06 06:33:26;;;;;;;1.00;1.00;;;4.00;84.40;3.10;98263.00;;;;5098726;28;20194;-79
2022/01/06 06:35:54;;;;;;;0.70;0.70;;;4.00;84.70;3.10;98274.00;;;;5098530;28;20258;-79
2022/01/06 06:38:20;;;;;;;0.70;0.70;;;3.90;85.30;3.20;98278.00;;;;5098510;28;20212;-79
2022/01/06 06:40:49;;;;;;;0.90;0.90;;;4.00;84.50;3.10;98280.00;;;;5098511;28;20209;-79
2022/01/06 06:43:16;;;;;;;0.60;0.60;;;4.00;84.60;3.30;98284.00;;;;5098305;28;20318;-79
2022/01/06 06:45:44;;;;;;;1.20;1.20;;;4.10;84.40;3.20;98284.00;;;;5098379;28;20229;-80
2022/01/06 06:48:11;;;;;;;0.80;0.80;;;4.00;85.20;3.20;98293.00;;;;5098384;28;20219;-79
2022/01/06 06:50:37;;;;;;;0.70;0.70;;;4.10;85.00;3.20;98287.00;;;;5098207;28;20633;-80
2022/01/06 06:53:05;;;;;;;0.87;0.87;;;4.00;85.30;3.30;98289.00;;;;5098327;28;20199;-80
2022/01/06 06:55:34;;;;;;;0.93;0.93;;;4.10;85.20;3.20;98291.00;;;;5098071;28;20204;-79
2022/01/06 06:58:03;;;;;;;0.90;0.90;;;4.00;85.00;3.10;98291.00;;;;5098264;28;20284;-78
2022/01/06 07:00:30;;;;;;;0.90;0.90;;;4.00;86.00;3.10;98294.00;;;;5098142;28;20642;-79
2022/01/06 07:02:57;;;;;;;0.77;0.77;;;3.90;85.30;3.00;98312.00;;;;5098048;28;20319;-78
2022/01/06 07:05:23;;;;;;;0.97;0.97;;;3.90;85.70;2.90;98292.00;;;;5097852;28;20254;-79
2022/01/06 07:07:50;;;;;;;0.70;0.70;;;3.80;86.10;3.00;98303.00;;;;5098103;28;20284;-79
2022/01/06 07:10:19;;;;;;;0.70;0.70;;;3.90;85.70;3.00;98296.00;;;;5097773;28;20649;-79
2022/01/06 07:12:46;;;;;;;0.97;0.97;;;3.80;86.10;3.10;98299.00;;;;5098456;28;20291;-79
2022/01/06 07:15:15;;;;;;;1.27;1.17;;;3.90;86.20;2.90;98311.00;;;;5098398;28;20217;-76
2022/01/06 07:17:42;;;;;;;0.60;0.60;;;3.90;86.00;3.10;98311.00;;;;5098665;28;20753;-80
2022/01/06 07:20:10;;;;;;;1.50;1.40;;;3.90;86.30;3.00;98320.00;;;;5098020;28;20300;-75
2022/01/06 07:22:37;;;;;;;1.70;1.43;;;3.90;85.80;3.10;98297.00;;;;5097711;28;20327;-80
2022/01/06 07:25:05;;;;;;;2.13;1.43;;;3.90;85.60;3.10;98321.00;;;;5098090;28;20218;-79
2022/01/06 07:27:32;;;;;;;1.37;1.37;;;3.90;85.60;3.10;98318.00;;;;5098109;28;20209;-80
2022/01/06 07:30:01;;;;;;;1.70;1.70;;;3.90;85.20;3.10;98319.00;;;;5097974;28;20237;-79
2022/01/06 07:32:27;;;;;;;0.93;0.93;;;3.90;85.90;3.00;98313.00;;;;5098036;28;20206;-79
2022/01/06 07:34:54;;;;;;;2.03;1.07;;;3.90;85.90;3.00;98314.00;;;;5097837;28;20306;-78
2022/01/06 07:37:20;;;;;;;0.70;0.70;;;3.90;85.70;2.90;98318.00;;;;5097543;28;20201;-79
2022/01/06 07:39:47;;;;;;;0.60;0.60;;;3.80;86.10;3.00;98318.00;;;;5097392;28;20367;-79
2022/01/06 07:42:13;;;;;;;0.60;0.60;;;3.80;85.60;2.90;98328.00;;;;5097545;28;20279;-79
2022/01/06 07:44:46;;;;;;;1.10;1.10;;;3.80;86.20;2.90;98327.00;;;;5097432;28;20244;-78
2022/01/06 07:47:14;;;;;;;2.73;1.90;;;3.70;86.20;2.90;98328.00;;;;5097428;28;20228;-78
2022/01/06 07:49:40;;;;;;;1.13;1.13;;;3.70;86.20;2.90;98339.00;;;;5097349;28;20217;-78
2022/01/06 07:52:07;;;;;;;1.00;1.00;;;3.70;87.00;2.80;98335.00;;;;5097388;28;20582;-78
2022/01/06 07:54:34;;;;;;;0.90;0.90;;;3.70;86.40;2.90;98340.00;;;;5097555;28;20343;-77
2022/01/06 07:57:00;;;;;;;0.80;0.80;;;3.70;87.30;2.70;98340.00;;;;5097587;28;20656;-79
2022/01/06 07:59:27;;;;;;;0.70;0.70;;;3.60;87.00;2.70;98342.00;;;;5097427;28;20342;-79
2022/01/06 08:01:56;;;;;;;0.70;0.70;;;3.60;87.20;2.50;98343.00;;;;5097175;28;20315;-79
2022/01/06 08:04:23;;;;;;;0.97;0.97;;;3.50;87.70;2.50;98338.00;;;;5097123;28;20306;-79
2022/01/06 08:06:49;;;;;;;0.87;0.87;;;3.50;87.70;2.70;98339.00;;;;5097466;28;20213;-77
2022/01/06 08:09:16;;;;;;;1.70;1.40;;;3.50;88.30;2.70;98348.00;;;;5097526;28;20205;-79
2022/01/06 08:11:42;;;;;;;0.90;0.90;;;3.50;88.10;2.80;98363.00;;;;5097275;28;20208;-78
2022/01/06 08:14:09;;;;;;;0.83;0.83;;;3.50;88.30;2.60;98358.00;;;;5097249;28;20660;-80
2022/01/06 08:16:35;;;;;;;1.10;1.10;;;3.50;88.00;2.80;98361.00;;;;5098403;28;20308;-79
2022/01/06 08:19:03;;;;;;;1.00;1.00;;;3.50;88.50;2.90;98363.00;;;;5097962;28;20653;-80
2022/01/06 08:21:31;;;;;;;1.43;1.33;;;3.60;88.20;2.90;98375.00;;;;5097070;28;20208;-78
2022/01/06 08:23:58;;;;;;;0.80;0.80;;;3.70;87.90;2.80;98368.00;;;;5096968;28;20219;-80
2022/01/06 08:26:25;;;;;;;1.23;1.23;;;3.70;87.30;2.90;98343.00;;;;5097213;28;20646;-79
2022/01/06 08:28:51;;;;;;;1.03;1.03;;;3.70;88.00;3.00;98369.00;;;;5097706;28;20207;-80
2022/01/06 08:31:18;;;;;;;4.10;1.53;;;3.80;88.00;2.80;98372.00;;;;5113920;28;20224;-79
2022/01/06 08:33:46;;;;;;;1.07;1.07;;;3.70;88.40;2.80;98376.00;;;;5098910;28;20209;-80
2022/01/06 08:36:16;;;;;;;1.17;1.17;;;3.70;88.50;3.10;98376.00;;;;5096798;28;20267;-77
2022/01/06 08:38:43;;;;;;;0.90;0.90;;;3.80;88.20;2.90;98367.00;;;;5097136;28;20251;-80
2022/01/06 08:41:10;;;;;;;9.60;0.97;;;3.80;87.70;3.00;98370.00;;;;5099540;28;20216;-78
2022/01/06 08:43:38;;;;;;;1.03;0.97;;;3.80;88.70;3.10;98384.00;;;;5097464;28;20571;-80
2022/01/06 08:46:05;;;;;;;0.73;0.73;;;3.90;87.50;3.00;98389.00;;;;5096884;28;20252;-79
2022/01/06 08:48:32;;;;;;;2.53;1.57;;;3.90;87.20;3.20;98394.00;;;;5096544;28;20708;-80
2022/01/06 08:50:59;;;;;;;1.50;1.40;;;3.90;87.50;3.20;98385.00;;;;5098899;28;20216;-78
2022/01/06 08:53:26;;;;;;;2.60;1.90;;;4.00;86.70;3.30;98395.00;;;;5100200;28;20723;-79
2022/01/06 08:55:52;;;;;;;0.77;0.77;;;4.00;86.80;3.40;98368.00;;;;5100212;28;20188;-79
2022/01/06 08:58:19;;;;;;;1.07;1.07;;;4.10;86.90;3.30;98392.00;;;;5099783;28;20740;-78
2022/01/06 09:00:48;;;;;;;0.80;0.80;;;4.10;85.70;3.30;98408.00;;;;5100007;28;20197;-79
2022/01/06 09:03:15;;;;;;;5.70;1.43;;;4.00;86.20;3.30;98395.00;;;;5099865;28;20199;-80
2022/01/06 09:05:42;;;;;;;0.93;0.93;;;4.10;85.90;3.20;98405.00;;;;5116845;28;20623;-79
2022/01/06 09:08:10;;;;;;;1.97;1.87;;;4.10;86.30;3.40;98408.00;;;;5099935;28;20213;-79
2022/01/06 09:10:38;;;;;;;0.80;0.80;;;4.10;86.10;3.40;98404.00;;;;5099925;28;20289;-79
2022/01/06 09:13:06;;;;;;;1.57;1.47;;;4.20;84.90;3.40;98403.00;;;;5100226;28;20650;-78
2022/01/06 09:15:35;;;;;;;1.07;1.07;;;4.30;84.60;3.60;98416.00;;;;5100365;28;20546;-78
2022/01/06 09:18:04;;;;;;;0.93;0.93;;;4.30;85.10;3.50;98412.00;;;;5099909;28;20708;-79
2022/01/06 09:20:33;;;;;;;0.63;0.63;;;4.30;84.20;3.40;98399.00;;;;5099765;28;20212;-80
2022/01/06 09:23:00;;;;;;;2.33;1.27;;;4.30;84.30;3.60;98425.00;;;;5099671;28;20205;-79
2022/01/06 09:25:27;;;;;;;1.03;1.03;;;4.40;84.10;3.60;98431.00;;;;5099589;28;20233;-80
2022/01/06 09:27:54;;;;;;;1.10;1.10;;;4.40;83.20;3.60;98430.00;;;;5099443;28;20237;-79
2022/01/06 09:30:23;;;;;;;1.03;0.90;;;4.30;83.70;3.60;98421.00;;;;5099534;28;20201;-79
2022/01/06 09:32:50;;;;;;;0.67;0.67;;;4.40;83.20;3.70;98426.00;;;;5099471;28;20552;-80
2022/01/06 09:35:17;;;;;;;0.80;0.80;;;4.40;83.00;3.80;98440.00;;;;5084368;28;20208;-79
2022/01/06 09:37:46;;;;;;;0.60;0.60;;;4.50;83.00;3.80;98407.00;;;;5099492;28;20230;-79
2022/01/06 09:40:13;;;;;;;0.70;0.70;;;4.60;82.10;3.70;98431.00;;;;5101813;28;20267;-81
2022/01/06 09:42:42;;;;;;;1.23;1.17;;;4.50;81.90;3.70;98441.00;;;;5101088;28;20198;-79
2022/01/06 09:45:10;;;;;;;0.70;0.70;;;4.50;82.50;3.80;98451.00;;;;5099759;28;20248;-79
2022/01/06 09:47:38;;;;;;;1.23;1.23;;;4.60;81.60;3.80;98457.00;;;;5099654;28;20193;-77
2022/01/06 09:50:07;;;;;;;1.10;1.10;;;4.60;81.60;3.60;98454.00;;;;5099556;28;20370;-80
2022/01/06 09:52:34;;;;;;;0.53;0.53;;;4.50;81.90;3.50;98457.00;;;;5101172;28;20200;-78
2022/01/06 09:55:03;;;;;;;0.60;0.60;;;4.40;81.70;3.60;98468.00;;;;5099763;28;20278;-78
2022/01/06 09:57:30;;;;;;;1.23;1.23;;;4.40;82.20;3.80;98457.00;;;;5100322;28;20206;-79
2022/01/06 09:59:56;;;;;;;1.67;1.57;;;4.50;82.00;3.90;98440.00;;;;5105372;28;20214;-79
2022/01/06 10:02:33;;;;;;;0.90;0.90;;;4.60;81.40;3.80;98460.00;;;;5111980;28;20197;-80
2022/01/06 10:05:01;;;;;;;0.77;0.77;;;4.60;81.10;3.80;98456.00;;;;5109567;28;20234;-79
2022/01/06 10:07:36;;;;;;;0.70;0.70;;;4.60;80.60;3.90;98458.00;;;;5101114;28;20210;-77
2022/01/06 10:10:09;;;;;;;1.30;1.20;;;4.70;80.40;4.00;98465.00;;;;5100471;28;20204;-80
2022/01/06 10:12:39;;;;;;;1.03;1.03;;;4.80;79.30;4.10;98469.00;;;;5107933;28;20297;-81
2022/01/06 10:15:17;;;;;;;0.60;0.60;;;4.80;79.50;3.90;98455.00;;;;5112170;28;20257;-80
2022/01/06 10:17:47;;;;;;;1.07;1.00;;;4.80;79.00;4.10;98461.00;;;;5112029;28;20253;-80
2022/01/06 10:20:17;;;;;;;1.53;1.43;;;4.80;79.20;4.10;98460.00;;;;5105715;28;20206;-79
2022/01/06 10:22:46;;;;;;;0.77;0.77;;;4.90;78.50;4.20;98456.00;;;;5106229;28;20233;-81
2022/01/06 10:25:13;;;;;;;0.60;0.60;;;4.90;78.10;4.20;98468.00;;;;5099118;28;20745;-80
2022/01/06 10:27:41;;;;;;;0.87;0.87;;;5.00;77.60;4.40;98476.00;;;;5099413;28;20223;-81
2022/01/06 10:30:10;;;;;;;0.60;0.60;;;5.10;76.00;4.50;98473.00;;;;5098702;28;20617;-80
2022/01/06 10:32:39;;;;;;;6.70;1.40;;;5.20;76.20;4.30;98472.00;;;;5099099;28;20780;-82
2022/01/06 10:35:09;;;;;;;0.80;0.80;;;5.10;75.80;4.40;98470.00;;;;5100277;28;20244;-79
2022/01/06 10:37:42;;;;;;;0.70;0.70;;;5.10;76.60;4.20;98470.00;;;;5099888;28;20263;-79
2022/01/06 10:40:13;;;;;;;0.70;0.70;;;5.10;75.40;4.60;98472.00;;;;5099169;28;20287;-78
2022/01/06 10:42:45;;;;;;;0.70;0.70;;;5.20;75.50;4.70;98469.00;;;;5098731;28;20317;-79
2022/01/06 10:45:21;;;;;;;1.07;1.07;;;5.40;75.00;5.00;98468.00;;;;5098257;28;20527;-80
2022/01/06 10:47:50;;;;;;;0.80;0.80;;;5.50;74.60;4.80;98471.00;;;;5098517;28;20201;-80
2022/01/06 10:50:23;;;;;;;0.80;0.80;;;5.60;73.60;5.00;98482.00;;;;5098562;28;20198;-75
2022/01/06 10:52:53;;;;;;;2.60;2.40;;;5.60;73.40;5.00;98471.00;;;;5098402;28;20297;-81
2022/01/06 10:55:22;;;;;;;0.63;0.63;;;5.70;71.90;4.90;98459.00;;;;5098449;28;20613;-76
2022/01/06 10:57:54;;;;;;;0.50;0.50;;;5.70;72.60;5.00;98474.00;;;;5098342;28;20610;-78
2022/01/06 11:00:24;;;;;;;1.03;0.80;;;5.70;73.40;5.00;98474.00;;;;5098453;28;20197;-79
2022/01/06 11:02:51;;;;;;;0.90;0.90;;;;;4.90;98477.00;;;;5098331;28;20230;-80
2022/01/06 11:05:19;;;;;;;0.67;0.67;;;5.70;72.10;5.20;98473.00;;;;5098064;28;20225;-77
2022/01/06 11:07:46;;;;;;;0.83;0.83;;;5.70;70.60;5.10;98490.00;;;;5098064;28;20222;-76
2022/01/06 11:10:16;;;;;;;0.80;0.80;;;5.70;71.70;4.80;98480.00;;;;5098488;28;20202;-74
2022/01/06 11:12:43;;;;;;;4.20;1.77;;;5.70;72.20;5.10;98492.00;;;;5097173;28;20233;-77
2022/01/06 11:15:10;;;;;;;1.37;1.37;;;5.80;72.30;5.10;98490.00;;;;5097876;28;20229;-77